Time;durP1;ratioP1;P1;durP2;ratioP2;P2;SDS_P1;SDS_P2;PMS_P1;PMS_P2;Temp;Humidity;BMP_temperature;BMP_pressure;BME280_temperature;BME280_humidity;BME280_pressure;Samples;Min_cycle;Max_cycle;Signal;HPM_P1;HPM_P2
2023/11/04 00:00:00;;;;;;;10.20;7.40;;;;;;;10.38;100.00;99781.41;104508;1257;61749;-50
2023/11/04 00:02:28;;;;;;;8.40;7.70;;;;;;;10.41;100.00;99775.73;104797;1254;75717;-50
2023/11/04 00:04:55;;;;;;;9.30;7.90;;;;;;;10.42;100.00;99782.83;104660;1260;65668;-51
2023/11/04 00:07:23;;;;;;;8.20;7.40;;;;;;;10.43;100.00;99784.40;104757;1259;72724;-50
2023/11/04 00:09:50;;;;;;;8.00;7.20;;;;;;;10.44;100.00;99777.73;104510;1256;62233;-50
2023/11/04 00:12:20;;;;;;;8.80;7.90;;;;;;;10.46;100.00;99773.69;105080;1259;60290;-48
2023/11/04 00:14:47;;;;;;;7.90;7.10;;;;;;;10.47;100.00;99770.77;104536;1254;74227;-48
2023/11/04 00:17:15;;;;;;;8.50;7.80;;;;;;;10.47;100.00;99770.91;104517;1256;65736;-50
2023/11/04 00:19:42;;;;;;;7.40;6.80;;;;;;;10.49;100.00;99756.50;104699;1259;71450;-50
2023/11/04 00:22:09;;;;;;;8.60;7.70;;;;;;;10.50;100.00;99750.15;104548;1260;62319;-50
2023/11/04 00:24:37;;;;;;;8.50;7.60;;;;;;;10.51;100.00;99757.28;104885;1257;60495;-49
2023/11/04 00:27:05;;;;;;;6.80;6.10;;;;;;;10.53;100.00;99760.78;104666;1255;71633;-48
2023/11/04 00:29:32;;;;;;;6.00;5.60;;;;;;;10.56;100.00;99759.91;104940;1259;66842;-50
2023/11/04 00:31:59;;;;;;;7.80;5.80;;;;;;;10.58;100.00;99766.98;104740;1261;72773;-51
2023/11/04 00:34:27;;;;;;;6.10;5.50;;;;;;;10.59;100.00;99767.85;104563;1254;61839;-50
2023/11/04 00:36:54;;;;;;;7.30;6.10;;;;;;;10.61;100.00;99775.13;104693;1257;60558;-52
2023/11/04 00:39:22;;;;;;;6.40;5.80;;;;;;;10.63;100.00;99788.50;104803;1259;74267;-51
2023/11/04 00:41:49;;;;;;;4.80;4.40;;;;;;;10.64;100.00;99794.89;104882;1256;64816;-49
2023/11/04 00:44:17;;;;;;;5.50;5.00;;;;;;;10.64;100.00;99787.89;104649;1259;72842;-51
2023/11/04 00:46:44;;;;;;;6.60;6.10;;;;;;;10.65;100.00;99795.02;104942;1254;62705;-50
2023/11/04 00:49:11;;;;;;;4.40;4.10;;;;;;;10.66;100.00;99799.98;104788;1254;60489;-51
2023/11/04 00:51:39;;;;;;;5.80;5.30;;;;;;;10.68;100.00;99795.96;109008;1253;73849;-51
2023/11/04 00:54:07;;;;;;;5.80;5.30;;;;;;;10.70;100.00;99794.83;105310;1260;66899;-51
2023/11/04 00:56:34;;;;;;;4.90;4.60;;;;;;;10.71;100.00;99807.13;105848;1258;71456;-49
2023/11/04 00:59:01;;;;;;;5.60;5.20;;;;;;;10.72;100.00;99811.21;104681;1259;60432;-50
2023/11/04 01:01:29;;;;;;;5.20;4.80;;;;;;;10.74;100.00;99813.23;104768;1254;60508;-52
2023/11/04 01:03:56;;;;;;;6.40;5.80;;;;;;;10.77;100.00;99799.84;104790;1260;72646;-50
2023/11/04 01:06:24;;;;;;;6.90;5.90;;;;;;;10.79;100.00;99798.68;104764;1259;65719;-51
2023/11/04 01:08:51;;;;;;;7.30;6.60;;;;;;;10.81;100.00;99780.94;104753;1257;72710;-50
2023/11/04 01:11:18;;;;;;;6.00;5.30;;;;;;;10.82;100.00;99766.91;104714;1261;60636;-51
2023/11/04 01:13:46;;;;;;;7.80;7.10;;;;;;;10.83;100.00;99761.31;104708;1256;60572;-49
2023/11/04 01:16:14;;;;;;;7.30;6.70;;;;;;;10.84;100.00;99771.66;109064;1254;74396;-51
2023/11/04 01:18:41;;;;;;;8.00;7.30;;;;;;;10.85;100.00;99783.82;108913;1254;67502;-52
2023/11/04 01:21:09;;;;;;;8.30;7.50;;;;;;;10.88;100.00;99788.00;108967;1254;70809;-52
2023/11/04 01:23:36;;;;;;;8.80;7.30;;;;;;;10.89;100.00;99802.45;108942;1255;60413;-51
2023/11/04 01:26:04;;;;;;;9.20;8.30;;;;;;;10.90;100.00;99818.73;108952;1254;58784;-49
2023/11/04 01:28:31;;;;;;;8.90;8.10;;;;;;;10.91;100.00;99826.05;108895;1252;74277;-49
2023/11/04 01:30:58;;;;;;;7.70;7.00;;;;;;;10.93;100.00;99835.86;108410;1256;66774;-48
2023/11/04 01:33:26;;;;;;;8.30;7.40;;;;;;;10.95;100.00;99847.44;104784;1254;71454;-51
2023/11/04 01:35:54;;;;;;;8.20;7.40;;;;;;;10.96;100.00;99849.52;104830;1255;60556;-51
2023/11/04 01:38:21;;;;;;;8.50;7.80;;;;;;;10.98;100.00;99840.07;104705;1254;60332;-50
2023/11/04 01:40:50;;;;;;;8.40;7.70;;;;;;;11.02;100.00;99831.29;104834;1254;74539;-51
2023/11/04 01:43:24;;;;;;;11.20;7.70;;;;;;;11.05;100.00;99841.94;108960;1254;66252;-50
2023/11/04 01:46:11;;;;;;;7.70;7.20;;;;;;;11.07;100.00;99851.84;108979;1253;71360;-49
2023/11/04 01:48:39;;;;;;;8.40;7.70;;;;;;;11.10;100.00;99871.48;108962;1254;60469;-50
2023/11/04 01:51:07;;;;;;;8.60;7.60;;;;;;;11.11;100.00;99873.92;108965;1254;59665;-50
2023/11/04 01:53:35;;;;;;;9.00;8.00;;;;;;;11.14;100.00;99880.99;108830;1254;72620;-49
2023/11/04 01:56:07;;;;;;;10.30;6.90;;;;;;;11.16;100.00;99895.24;108800;1254;66319;-50
2023/11/04 01:58:34;;;;;;;8.90;8.00;;;;;;;11.18;100.00;99907.52;108788;1255;73568;-50
2023/11/04 02:01:02;;;;;;;8.00;7.10;;;;;;;11.21;100.00;99907.91;108822;1254;61764;-50
2023/11/04 02:03:29;;;;;;;7.50;6.80;;;;;;;11.24;100.00;99908.11;108744;1254;60086;-50
2023/11/04 02:05:57;;;;;;;9.40;6.90;;;;;;;11.27;100.00;99917.33;109008;1254;74764;-49
2023/11/04 02:08:24;;;;;;;10.20;6.90;;;;;;;11.30;100.00;99932.29;108918;1254;66434;-50
2023/11/04 02:10:51;;;;;;;8.00;7.30;;;;;;;11.32;100.00;99935.04;108950;1254;73987;-49
2023/11/04 02:13:19;;;;;;;7.20;6.50;;;;;;;11.34;100.00;99939.42;108925;1254;60757;-50
2023/11/04 02:15:46;;;;;;;10.40;7.30;;;;;;;11.36;100.00;99939.70;108964;1254;58847;-51
2023/11/04 02:18:13;;;;;;;7.30;6.60;;;;;;;11.38;100.00;99927.38;108994;1254;74205;-50
2023/11/04 02:20:41;;;;;;;7.90;7.20;;;;;;;11.40;100.00;99922.45;108846;1254;67361;-49
2023/11/04 02:23:08;;;;;;;8.60;7.20;;;;;;;11.42;100.00;99922.35;108941;1253;72764;-50
2023/11/04 02:25:36;;;;;;;9.50;7.20;;;;;;;11.44;100.00;99934.67;108777;1254;61653;-50
2023/11/04 02:28:03;;;;;;;8.90;7.20;;;;;;;11.46;100.00;99942.33;108887;1254;60091;-50
2023/11/04 02:30:31;;;;;;;9.90;7.80;;;;;;;11.49;100.00;99938.20;108989;1253;74372;-50
2023/11/04 02:32:59;;;;;;;11.40;7.90;;;;;;;11.50;100.00;99932.92;108930;1254;66471;-49
2023/11/04 02:35:26;;;;;;;10.60;7.20;;;;;;;11.53;100.00;99951.30;108946;1254;71182;-50
2023/11/04 02:37:54;;;;;;;10.50;7.80;;;;;;;11.54;100.00;99960.61;108887;1258;62172;-50
2023/11/04 02:40:21;;;;;;;11.70;9.10;;;;;;;11.55;100.00;99974.91;108966;1254;61138;-50
2023/11/04 02:42:49;;;;;;;12.10;8.70;;;;;;;11.56;100.00;99976.30;109064;1253;73835;-49
2023/11/04 02:45:16;;;;;;;14.40;9.80;;;;;;;11.57;100.00;99967.63;108936;1254;68517;-49
2023/11/04 02:47:44;;;;;;;15.40;10.50;;;;;;;11.56;100.00;99963.39;109021;1257;71482;-49
2023/11/04 02:50:13;;;;;;;13.70;10.50;;;;;;;11.56;100.00;99975.07;108904;1254;60410;-49
2023/11/04 02:52:40;;;;;;;13.50;11.40;;;;;;;11.56;100.00;99986.38;108953;1253;58829;-49
2023/11/04 02:55:08;;;;;;;18.00;11.80;;;;;;;11.56;100.00;99998.06;108886;1254;74884;-50
2023/11/04 02:57:35;;;;;;;16.00;10.40;;;;;;;11.56;100.00;99988.86;108940;1254;68562;-50
2023/11/04 03:00:04;;;;;;;15.70;11.00;;;;;;;11.57;100.00;99980.73;108908;1257;72731;-49
2023/11/04 03:02:31;;;;;;;16.90;11.60;;;;;;;11.58;100.00;99999.02;109031;1254;60433;-50
2023/11/04 03:04:58;;;;;;;15.20;10.90;;;;;;;11.59;100.00;99992.15;108953;1253;59795;-49
2023/11/04 03:07:26;;;;;;;15.00;10.80;;;;;;;11.60;100.00;99985.27;108943;1254;75962;-50
2023/11/04 03:09:53;;;;;;;15.00;11.50;;;;;;;11.61;100.00;99983.08;108985;1254;67925;-49
2023/11/04 03:12:21;;;;;;;16.70;12.30;;;;;;;11.61;100.00;99985.21;108705;1254;73161;-49
2023/11/04 03:14:48;;;;;;;14.80;10.10;;;;;;;11.62;100.00;99988.60;108877;1253;60465;-49
2023/11/04 03:17:16;;;;;;;14.00;10.10;;;;;;;11.62;100.00;99984.80;108800;1254;60497;-49
2023/11/04 03:19:45;;;;;;;11.50;9.80;;;;;;;11.63;100.00;99985.13;108917;1253;74336;-50
2023/11/04 03:22:12;;;;;;;11.50;9.70;;;;;;;11.63;100.00;99981.34;108885;1254;66483;-49
2023/11/04 03:24:46;;;;;;;12.50;9.60;;;;;;;11.64;100.00;99984.73;108900;1257;71488;-49
2023/11/04 03:27:13;;;;;;;11.80;9.10;;;;;;;11.64;100.00;99990.12;108929;1254;62232;-50
2023/11/04 03:29:41;;;;;;;13.10;8.20;;;;;;;11.65;100.00;99988.95;108886;1254;60132;-51
2023/11/04 03:32:09;;;;;;;8.30;7.20;;;;;;;11.66;100.00;99985.14;109094;1254;72559;-50
2023/11/04 03:34:37;;;;;;;11.70;7.40;;;;;;;11.66;100.00;99981.74;108983;1254;68034;-50
2023/11/04 03:37:05;;;;;;;12.10;8.10;;;;;;;11.66;100.00;99979.02;108788;1254;71497;-50
2023/11/04 03:39:35;;;;;;;7.20;6.50;;;;;;;11.66;100.00;99980.11;104717;1254;62119;-50
2023/11/04 03:42:04;;;;;;;7.20;6.50;;;;;;;11.66;100.00;99969.71;104819;1254;60463;-50
2023/11/04 03:44:31;;;;;;;8.60;6.50;;;;;;;11.65;100.00;99962.23;104700;1259;74288;-51
2023/11/04 03:46:58;;;;;;;9.60;6.90;;;;;;;11.65;100.00;99960.06;104818;1259;66717;-51
2023/11/04 03:49:26;;;;;;;9.10;7.50;;;;;;;11.64;100.00;99952.16;104852;1254;73160;-49
2023/11/04 03:51:55;;;;;;;10.30;7.20;;;;;;;11.65;100.00;99950.86;104539;1255;214207;-50
2023/11/04 03:55:56;;;;;;;6.90;6.10;;;;;;;11.62;100.00;100021.64;101738;1290;600911;-50
2023/11/04 03:58:24;;;;;;;10.20;6.50;;;;;;;11.63;100.00;100121.36;104436;1263;60643;-49
2023/11/04 04:00:51;;;;;;;8.20;6.60;;;;;;;11.65;100.00;100107.11;104480;1258;60113;-49
2023/11/04 04:03:19;;;;;;;7.60;6.20;;;;;;;11.66;100.00;100094.27;104360;1259;73167;-51
2023/11/04 04:05:46;;;;;;;8.30;6.30;;;;;;;11.66;100.00;100089.20;105420;1256;65736;-51
2023/11/04 04:08:15;;;;;;;6.20;5.60;;;;;;;11.68;100.00;100093.64;104526;1258;73188;-52
2023/11/04 04:10:42;;;;;;;9.20;6.70;;;;;;;11.69;100.00;100092.13;104363;1260;135330;-49
2023/11/04 04:13:09;;;;;;;6.90;6.10;;;;;;;11.71;100.00;100103.73;104694;1254;59354;-50
2023/11/04 04:15:36;;;;;;;8.80;5.90;;;;;;;11.72;100.00;100099.75;104420;1256;70708;-49
2023/11/04 04:18:04;;;;;;;6.60;5.30;;;;;;;11.72;100.00;100088.41;104734;1254;69422;-51
2023/11/04 04:20:31;;;;;;;7.60;5.90;;;;;;;11.72;100.00;100076.52;104612;1260;73257;-51
2023/11/04 04:22:59;;;;;;;5.90;5.40;;;;;;;11.73;100.00;100059.60;104738;1256;60937;-51
2023/11/04 04:25:26;;;;;;;10.90;7.20;;;;;;;11.74;100.00;100060.45;104687;1254;59654;-51
2023/11/04 04:27:53;;;;;;;6.90;6.20;;;;;;;11.74;100.00;100068.52;104563;1256;73049;-52
2023/11/04 04:30:20;;;;;;;7.90;5.80;;;;;;;11.75;100.00;100076.78;104493;1260;65658;-51
2023/11/04 04:32:48;;;;;;;8.40;5.50;;;;;;;11.75;100.00;100072.30;104654;1257;71448;-51
2023/11/04 04:35:16;;;;;;;6.90;5.90;;;;;;;11.75;100.00;100071.58;105059;1257;62286;-51
2023/11/04 04:37:44;;;;;;;8.60;6.40;;;;;;;11.76;100.00;100069.91;104725;1260;59587;-51
2023/11/04 04:40:12;;;;;;;7.20;5.70;;;;;;;11.77;100.00;100067.89;104817;1258;71804;-49
2023/11/04 04:42:39;;;;;;;7.70;5.80;;;;;;;11.78;100.00;100069.46;104577;1261;65647;-50
2023/11/04 04:45:07;;;;;;;7.40;6.00;;;;;;;11.79;100.00;100068.33;108784;1256;71650;-51
2023/11/04 04:47:36;;;;;;;7.30;6.10;;;;;;;11.79;100.00;100075.35;104770;1263;60400;-51
2023/11/04 04:50:04;;;;;;;7.40;5.00;;;;;;;11.81;100.00;100076.86;106890;1257;59698;-50
2023/11/04 04:52:32;;;;;;;6.20;4.60;;;;;;;11.84;100.00;100078.52;104775;1257;72939;-50
2023/11/04 04:54:59;;;;;;;9.80;6.30;;;;;;;11.85;100.00;100074.69;104499;1260;66396;-51
2023/11/04 04:57:26;;;;;;;7.40;5.70;;;;;;;11.85;100.00;100066.05;104669;1260;72735;-49
2023/11/04 04:59:54;;;;;;;7.00;6.00;;;;;;;11.86;100.00;100075.57;104753;1257;61673;-51
2023/11/04 05:02:21;;;;;;;7.00;6.20;;;;;;;11.87;100.00;100085.58;104371;1255;60598;-50
2023/11/04 05:04:49;;;;;;;6.20;5.30;;;;;;;11.88;100.00;100093.77;104526;1261;73217;-51
2023/11/04 05:07:16;;;;;;;6.40;5.50;;;;;;;11.90;100.00;100090.46;104624;1256;68238;-50
2023/11/04 05:09:44;;;;;;;7.60;6.00;;;;;;;11.91;100.00;100103.14;104712;1257;71640;-51
2023/11/04 05:12:11;;;;;;;6.60;5.60;;;;;;;11.93;100.00;100113.33;104433;1256;60660;-50
2023/11/04 05:14:38;;;;;;;6.20;4.90;;;;;;;11.93;100.00;100124.27;104751;1257;60088;-49
2023/11/04 05:17:06;;;;;;;6.00;5.20;;;;;;;11.95;100.00;100131.05;106328;1260;73508;-52
2023/11/04 05:19:34;;;;;;;6.70;5.70;;;;;;;11.96;100.00;100129.54;104595;1261;66717;-50
2023/11/04 05:22:02;;;;;;;6.30;5.20;;;;;;;11.97;100.00;100133.64;104486;1257;72383;-51
2023/11/04 05:24:30;;;;;;;6.30;5.40;;;;;;;11.99;100.00;100136.80;104592;1263;59946;-51
2023/11/04 05:26:58;;;;;;;5.90;5.10;;;;;;;12.00;100.00;100141.90;104559;1257;60112;-50
2023/11/04 05:29:25;;;;;;;6.10;5.40;;;;;;;12.02;100.00;100150.98;104608;1255;71571;-50
2023/11/04 05:31:53;;;;;;;4.90;4.40;;;;;;;12.03;100.00;100160.30;104470;1260;66716;-49
2023/11/04 05:34:20;;;;;;;5.20;4.70;;;;;;;12.04;100.00;100163.48;104618;1257;70426;-51
2023/11/04 05:36:48;;;;;;;4.50;4.00;;;;;;;12.05;100.00;100165.61;105114;1257;61634;-49
2023/11/04 05:39:16;;;;;;;5.50;4.90;;;;;;;12.07;100.00;100173.44;105318;1257;59733;-51
2023/11/04 05:41:43;;;;;;;4.90;3.80;;;;;;;12.07;100.00;100168.75;104570;1261;73120;-50
2023/11/04 05:44:10;;;;;;;4.40;3.80;;;;;;;12.09;100.00;100173.88;104907;1263;65958;-50
2023/11/04 05:46:38;;;;;;;5.40;4.80;;;;;;;12.09;100.00;100176.55;104586;1263;72755;-51
2023/11/04 05:49:05;;;;;;;4.30;3.90;;;;;;;12.11;100.00;100181.86;104551;1260;63712;-51
2023/11/04 05:51:33;;;;;;;5.90;5.20;;;;;;;12.12;100.00;100182.35;104590;1259;59676;-51
2023/11/04 05:54:00;;;;;;;4.40;4.00;;;;;;;12.14;100.00;100180.85;104674;1257;73231;-51
2023/11/04 05:56:27;;;;;;;6.20;5.10;;;;;;;12.16;100.00;100185.99;104669;1261;67114;-49
2023/11/04 05:58:55;;;;;;;4.00;3.50;;;;;;;12.17;100.00;100194.05;104657;1256;72902;-51
2023/11/04 06:01:23;;;;;;;6.40;5.30;;;;;;;12.18;100.00;100199.91;104468;1262;61711;-52
2023/11/04 06:03:51;;;;;;;8.10;5.50;;;;;;;12.19;100.00;100213.36;104680;1257;60096;-52
2023/11/04 06:06:20;;;;;;;6.80;4.20;;;;;;;12.20;100.00;100219.23;104547;1256;71869;-52
2023/11/04 06:08:47;;;;;;;5.60;5.10;;;;;;;12.21;100.00;100227.27;108784;1254;69564;-50
2023/11/04 06:11:15;;;;;;;8.60;5.50;;;;;;;12.23;100.00;100229.73;108710;1257;72738;-49
2023/11/04 06:13:42;;;;;;;8.70;5.20;;;;;;;12.25;100.00;100236.06;108751;1256;59457;-49
2023/11/04 06:16:10;;;;;;;6.40;5.80;;;;;;;12.27;100.00;100247.50;108723;1256;59098;-50
2023/11/04 06:18:37;;;;;;;9.80;6.60;;;;;;;12.29;100.00;100247.25;108690;1257;73600;-50
2023/11/04 06:21:05;;;;;;;7.00;4.90;;;;;;;12.30;100.00;100241.08;108794;1255;65949;-50
2023/11/04 06:23:32;;;;;;;7.40;6.10;;;;;;;12.31;100.00;100227.70;108799;1256;72732;-50
2023/11/04 06:25:59;;;;;;;6.70;5.70;;;;;;;12.34;100.00;100226.47;108764;1257;60458;-51
2023/11/04 06:28:28;;;;;;;6.70;6.10;;;;;;;12.39;100.00;100250.73;108714;1257;58813;-50
2023/11/04 06:30:55;;;;;;;8.70;6.20;;;;;;;12.41;100.00;100264.84;108824;1255;71706;-50
2023/11/04 06:33:23;;;;;;;8.10;6.70;;;;;;;12.43;100.00;100262.02;108676;1254;67061;-51
2023/11/04 06:35:50;;;;;;;8.40;7.40;;;;;;;12.45;100.00;100263.92;107794;1257;71564;-46
2023/11/04 06:38:18;;;;;;;8.00;6.50;;;;;;;12.48;100.00;100255.88;104554;1260;60468;-50
2023/11/04 06:40:45;;;;;;;11.40;8.30;;;;;;;12.50;100.00;100267.66;104625;1260;59695;-49
2023/11/04 06:43:12;;;;;;;12.20;8.60;;;;;;;12.52;100.00;100278.88;104613;1255;71849;-49
2023/11/04 06:45:39;;;;;;;12.00;7.60;;;;;;;12.53;100.00;100282.06;104676;1260;66757;-50
2023/11/04 06:48:07;;;;;;;11.30;9.20;;;;;;;12.55;100.00;100285.42;104579;1255;71719;-48
2023/11/04 06:50:36;;;;;;;16.70;9.30;;;;;;;12.56;100.00;100284.12;104788;1254;61222;-51
2023/11/04 06:53:03;;;;;;;9.80;8.10;;;;;;;12.57;100.00;100281.19;104494;1262;60104;-51
2023/11/04 06:55:33;;;;;;;13.40;9.10;;;;;;;12.58;100.00;100287.45;104457;1260;72509;-51
2023/11/04 06:58:00;;;;;;;8.50;7.30;;;;;;;12.59;100.00;100297.64;104553;1260;66682;-51
2023/11/04 07:00:27;;;;;;;10.70;8.10;;;;;;;12.60;100.00;100308.17;104490;1254;72364;-50
2023/11/04 07:02:55;;;;;;;13.00;8.30;;;;;;;12.61;100.00;100315.16;104672;1255;62048;-51
2023/11/04 07:05:23;;;;;;;10.80;8.40;;;;;;;12.62;100.00;100327.73;104562;1257;59635;-49
2023/11/04 07:07:51;;;;;;;14.70;9.30;;;;;;;12.62;100.00;100333.84;104594;1257;73013;-50
2023/11/04 07:10:18;;;;;;;12.10;9.10;;;;;;;12.64;100.00;100334.68;104556;1257;67388;-51
2023/11/04 07:12:46;;;;;;;15.30;8.40;;;;;;;12.65;100.00;100337.51;104734;1258;71445;-50
2023/11/04 07:15:13;;;;;;;11.70;9.60;;;;;;;12.66;100.00;100337.09;104601;1258;60514;-50
2023/11/04 07:17:41;;;;;;;12.10;8.60;;;;;;;12.67;100.00;100343.01;104521;1260;60082;-50
2023/11/04 07:20:10;;;;;;;10.60;8.60;;;;;;;12.68;100.00;100349.05;106593;1255;71824;-50
2023/11/04 07:22:38;;;;;;;12.20;8.60;;;;;;;12.68;100.00;100358.02;105801;1257;66495;-52
2023/11/04 07:25:05;;;;;;;9.80;8.50;;;;;;;12.70;100.00;100362.08;104617;1256;72635;-51
2023/11/04 07:27:33;;;;;;;9.50;8.50;;;;;;;12.72;100.00;100364.53;104552;1260;61755;-52
2023/11/04 07:30:00;;;;;;;11.10;9.10;;;;;;;12.73;100.00;100367.74;104600;1260;59571;-49
2023/11/04 07:32:28;;;;;;;10.30;8.20;;;;;;;12.74;100.00;100365.36;104624;1262;73110;-50
2023/11/04 07:34:55;;;;;;;13.30;9.40;;;;;;;12.75;100.00;100367.28;104644;1262;65820;-49
2023/11/04 07:37:22;;;;;;;11.00;7.70;;;;;;;12.77;100.00;100377.79;104551;1256;71461;-52
2023/11/04 07:39:50;;;;;;;9.30;8.00;;;;;;;12.78;100.00;100390.88;104427;1260;61801;-52
2023/11/04 07:42:17;;;;;;;10.50;8.00;;;;;;;12.79;100.00;100391.00;105758;1257;61571;-51
2023/11/04 07:44:44;;;;;;;10.60;7.30;;;;;;;12.81;100.00;100378.31;104451;1257;73893;-50
2023/11/04 07:47:12;;;;;;;9.10;8.10;;;;;;;12.83;100.00;100382.88;104585;1255;65082;-52
2023/11/04 07:49:39;;;;;;;10.90;8.60;;;;;;;12.86;100.00;100401.67;104382;1257;70452;-51
2023/11/04 07:52:09;;;;;;;9.70;6.90;;;;;;;12.86;100.00;100398.05;104497;1258;61743;-51
2023/11/04 07:54:36;;;;;;;7.80;6.90;;;;;;;12.87;100.00;100405.73;104492;1257;60224;-52
2023/11/04 07:57:04;;;;;;;8.20;7.30;;;;;;;12.89;100.00;100415.94;104431;1259;73432;-51
2023/11/04 07:59:32;;;;;;;7.90;7.10;;;;;;;12.91;100.00;100414.96;104908;1260;66859;-52
2023/11/04 08:01:59;;;;;;;8.10;7.40;;;;;;;12.93;100.00;100414.35;104303;1260;72708;-50
2023/11/04 08:04:27;;;;;;;8.10;7.30;;;;;;;12.94;100.00;100418.21;104287;1260;60613;-50
2023/11/04 08:06:54;;;;;;;18.30;14.70;;;;;;;12.95;100.00;100428.83;104490;1260;62234;-52
2023/11/04 08:09:22;;;;;;;14.10;11.70;;;;;;;12.96;100.00;100431.80;104572;1260;75720;-50
2023/11/04 08:11:49;;;;;;;9.40;8.40;;;;;;;12.99;100.00;100435.12;104423;1260;66573;-48
2023/11/04 08:14:16;;;;;;;14.30;8.80;;;;;;;13.01;100.00;100440.22;104580;1260;72148;-51
2023/11/04 08:16:44;;;;;;;9.90;8.00;;;;;;;13.04;100.00;100451.45;104482;1260;61991;-52
2023/11/04 08:19:11;;;;;;;11.80;9.20;;;;;;;13.05;100.00;100466.87;104571;1258;59243;-51
2023/11/04 08:21:39;;;;;;;8.20;7.30;;;;;;;13.06;100.00;100472.59;104629;1257;72633;-50
2023/11/04 08:24:07;;;;;;;10.00;8.50;;;;;;;13.07;100.00;100473.66;104693;1260;67678;-51
2023/11/04 08:26:38;;;;;;;10.90;8.10;;;;;;;13.08;100.00;100474.34;106896;1257;71687;-52
2023/11/04 08:29:06;;;;;;;8.50;7.40;;;;;;;13.10;100.00;100485.73;108038;1258;61906;-52
2023/11/04 08:31:34;;;;;;;11.50;8.30;;;;;;;13.12;100.00;100491.07;104649;1260;61024;-52
2023/11/04 08:34:02;;;;;;;9.60;7.90;;;;;;;13.15;100.00;100498.36;104728;1257;75925;-52
2023/11/04 08:36:29;;;;;;;10.50;8.00;;;;;;;13.18;100.00;100495.13;106895;1257;66079;-50
2023/11/04 08:38:57;;;;;;;8.50;7.50;;;;;;;13.20;100.00;100502.95;104744;1260;74308;-50
2023/11/04 08:41:25;;;;;;;7.20;6.50;;;;;;;13.24;100.00;100518.48;104596;1254;61410;-50
2023/11/04 08:43:52;;;;;;;8.80;6.50;;;;;;;13.26;100.00;100522.50;104781;1257;60585;-50
2023/11/04 08:46:20;;;;;;;7.50;6.80;;;;;;;13.29;100.00;100528.33;104787;1258;73983;-49
2023/11/04 08:48:47;;;;;;;10.30;7.80;;;;;;;13.31;100.00;100544.48;104820;1257;67083;-50
2023/11/04 08:51:14;;;;;;;7.20;6.50;;;;;;;13.32;100.00;100545.30;105764;1260;73150;-51
2023/11/04 08:53:42;;;;;;;11.00;7.20;;;;;;;13.35;100.00;100546.25;104631;1257;61661;-52
2023/11/04 08:56:09;;;;;;;8.90;8.00;;;;;;;13.37;100.00;100553.34;104790;1254;60747;-51
2023/11/04 08:58:37;;;;;;;11.00;8.10;;;;;;;13.38;100.00;100555.45;104714;1259;73866;-52
2023/11/04 09:01:04;;;;;;;9.20;7.80;;;;;;;13.40;100.00;100560.27;105323;1259;66725;-50
2023/11/04 09:03:32;;;;;;;11.10;7.70;;;;;;;13.41;100.00;100566.52;106826;1257;71461;-51
2023/11/04 09:06:04;;;;;;;10.80;7.80;;;;;;;13.42;100.00;100575.66;108853;1254;60482;-53
2023/11/04 09:08:31;;;;;;;11.70;9.90;;;;;;;13.43;100.00;100579.21;109092;1255;60734;-52
2023/11/04 09:10:59;;;;;;;11.40;9.90;;;;;;;13.44;100.00;100575.92;108849;1254;72589;-52
2023/11/04 09:13:27;;;;;;;12.10;9.70;;;;;;;13.44;100.00;100575.59;108879;1254;67169;-52
2023/11/04 09:15:55;;;;;;;11.30;9.20;;;;;;;13.44;100.00;100580.06;108779;1254;71419;-52
2023/11/04 09:18:22;;;;;;;16.30;10.60;;;;;;;13.45;100.00;100584.34;108916;1254;60589;-52
2023/11/04 09:20:50;;;;;;;11.80;9.20;;;;;;;13.46;100.00;100583.56;109006;1259;60064;-52
2023/11/04 09:23:17;;;;;;;14.00;9.30;;;;;;;13.46;100.00;100582.30;108766;1254;71579;-52
2023/11/04 09:25:45;;;;;;;14.20;8.90;;;;;;;13.48;100.00;100585.80;109002;1254;66935;-52
2023/11/04 09:28:12;;;;;;;12.70;9.40;;;;;;;13.50;100.00;100596.20;108916;1257;72756;-52
2023/11/04 09:30:39;;;;;;;11.00;7.90;;;;;;;13.51;100.00;100597.42;107791;1257;62185;-50
2023/11/04 09:33:08;;;;;;;9.70;8.80;;;;;;;13.53;100.00;100598.91;104613;1255;60444;-50
2023/11/04 09:35:36;;;;;;;11.40;7.70;;;;;;;13.54;100.00;100605.16;108911;1255;72646;-50
2023/11/04 09:38:04;;;;;;;10.40;7.20;;;;;;;13.57;100.00;100613.19;108933;1254;67215;-52
2023/11/04 09:40:32;;;;;;;9.70;7.70;;;;;;;13.58;100.00;100612.60;108977;1254;72717;-52
2023/11/04 09:42:59;;;;;;;7.60;6.90;;;;;;;13.59;100.00;100614.70;108780;1254;61719;-52
2023/11/04 09:45:26;;;;;;;7.80;6.90;;;;;;;13.60;100.00;100609.57;108736;1254;58755;-52
2023/11/04 09:47:55;;;;;;;10.30;7.10;;;;;;;13.62;100.00;100602.99;108919;1254;74256;-53
2023/11/04 09:50:23;;;;;;;7.00;5.80;;;;;;;13.63;100.00;100607.98;108963;1254;65785;-52
2023/11/04 09:52:57;;;;;;;5.50;5.00;;;;;;;13.66;100.00;100613.13;108915;1254;72717;-52
2023/11/04 09:55:26;;;;;;;5.90;5.30;;;;;;;13.67;100.00;100614.31;108860;1254;60467;-53
2023/11/04 09:57:54;;;;;;;7.40;6.70;;;;;;;13.69;100.00;100613.16;108830;1254;58836;-53
2023/11/04 10:00:23;;;;;;;5.50;5.10;;;;;;;13.71;100.00;100617.71;106490;1262;73932;-51
2023/11/04 10:02:50;;;;;;;6.00;5.50;;;;;;;13.73;100.00;100627.19;104617;1254;67280;-52
2023/11/04 10:05:18;;;;;;;5.80;5.40;;;;;;;13.74;100.00;100632.38;108856;1254;72695;-53
2023/11/04 10:07:47;;;;;;;6.50;5.30;;;;;;;13.75;100.00;100632.89;108820;1254;61863;-51
2023/11/04 10:10:14;;;;;;;5.90;5.50;;;;;;;13.76;100.00;100631.41;108843;1254;60069;-51
2023/11/04 10:12:56;;;;;;;5.60;5.20;;;;;;;13.76;100.00;100648.52;106000;1254;74044;-51
2023/11/04 10:15:23;;;;;;;6.30;5.80;;;;;;;13.76;100.00;100638.98;105201;1255;65959;-51
2023/11/04 10:17:51;;;;;;;7.10;6.50;;;;;;;13.76;100.00;100638.23;104798;1254;73114;-51
2023/11/04 10:20:20;;;;;;;6.70;6.10;;;;;;;13.77;100.00;100640.91;104762;1257;61985;-50
2023/11/04 10:22:48;;;;;;;6.60;6.00;;;;;;;13.77;100.00;100643.80;108167;1254;60468;-51
2023/11/04 10:25:16;;;;;;;7.40;6.60;;;;;;;13.77;100.00;100647.59;104633;1260;74117;-51
2023/11/04 10:27:43;;;;;;;6.90;6.30;;;;;;;13.77;100.00;100659.30;104922;1260;64886;-50
2023/11/04 10:30:11;;;;;;;9.70;8.50;;;;;;;13.77;100.00;100656.95;104703;1254;72717;-51
2023/11/04 10:32:39;;;;;;;8.10;7.30;;;;;;;13.77;100.00;100653.55;104831;1260;60686;-50
2023/11/04 10:35:10;;;;;;;9.50;8.50;;;;;;;13.75;100.00;100651.45;104713;1260;61405;-50
2023/11/04 10:37:38;;;;;;;9.20;8.30;;;;;;;13.74;100.00;100650.25;104781;1260;72580;-51
2023/11/04 10:40:05;;;;;;;9.50;7.70;;;;;;;13.75;100.00;100647.33;104626;1254;66956;-50
2023/11/04 10:42:36;;;;;;;9.20;8.30;;;;;;;13.74;100.00;100643.77;106559;1260;71452;-50
2023/11/04 10:45:13;;;;;;;10.10;9.10;;;;;;;13.74;100.00;100644.11;105846;1254;61770;-50
2023/11/04 10:47:43;;;;;;;11.40;9.40;;;;;;;13.73;100.00;100654.44;104798;1260;60845;-50
2023/11/04 10:50:23;;;;;;;9.50;8.60;;;;;;;13.73;100.00;100647.95;104928;1254;74586;-50
2023/11/04 10:53:11;;;;;;;11.10;8.60;;;;;;;13.73;100.00;100667.06;104782;1254;67104;-50
2023/11/04 10:55:52;;;;;;;8.80;8.10;;;;;;;13.73;100.00;100686.54;104738;1256;71477;-51
2023/11/04 10:58:23;;;;;;;9.10;8.20;;;;;;;13.73;100.00;100682.04;105874;1260;61297;-50
2023/11/04 11:00:50;;;;;;;10.50;9.40;;;;;;;13.73;100.00;100677.36;104932;1259;60543;-51
2023/11/04 11:03:18;;;;;;;10.20;9.20;;;;;;;13.72;100.00;100674.48;104757;1263;72978;-50
2023/11/04 11:05:46;;;;;;;11.30;10.00;;;;;;;13.72;100.00;100668.38;104654;1262;65645;-51
2023/11/04 11:08:14;;;;;;;10.80;9.80;;;;;;;13.72;100.00;100671.97;105858;1258;72104;-51
2023/11/04 11:10:44;;;;;;;9.50;8.50;;;;;;;13.73;100.00;100670.69;105384;1260;62178;-51
2023/11/04 11:13:21;;;;;;;11.60;9.30;;;;;;;13.73;100.00;100676.79;104722;1259;60485;-50